Time;durP1;ratioP1;P1;durP2;ratioP2;P2;SDS_P1;SDS_P2;PMS_P1;PMS_P2;Temp;Humidity;BMP_temperature;BMP_pressure;BME280_temperature;BME280_humidity;BME280_pressure;Samples;Min_cycle;Max_cycle;Signal;HPM_P1;HPM_P2
2023/12/06 00:02:25;;;;;;;2.17;2.08;;;3.30;99.90;;;;;;5050601;28;20206;-60
2023/12/06 00:04:52;;;;;;;2.10;1.90;;;3.30;99.90;;;;;;5051752;28;20652;-59
2023/12/06 00:07:19;;;;;;;1.90;1.80;;;3.30;99.90;;;;;;5053895;28;20212;-59
2023/12/06 00:09:46;;;;;;;1.90;1.70;;;3.30;99.90;;;;;;5076152;22;20469;-60
2023/12/06 00:12:13;;;;;;;2.10;2.00;;;3.30;99.90;;;;;;5054978;28;20233;-60
2023/12/06 00:14:39;;;;;;;2.15;2.05;;;3.20;99.90;;;;;;5055267;28;20695;-60
2023/12/06 00:17:08;;;;;;;1.98;1.88;;;3.30;99.90;;;;;;5055120;28;20293;-57
2023/12/06 00:19:35;;;;;;;2.10;1.85;;;3.30;99.90;;;;;;5055257;28;20671;-57
2023/12/06 00:22:02;;;;;;;2.15;1.95;;;3.30;99.90;;;;;;5055156;28;20206;-60
2023/12/06 00:24:28;;;;;;;2.40;2.30;;;3.30;99.90;;;;;;5055196;28;20213;-58
2023/12/06 00:26:55;;;;;;;2.83;2.65;;;3.30;99.90;;;;;;5055175;28;20232;-60
2023/12/06 00:29:22;;;;;;;2.67;2.47;;;3.30;99.90;;;;;;5054867;28;20213;-60
2023/12/06 00:31:49;;;;;;;2.28;2.17;;;3.30;99.90;;;;;;5054745;28;20214;-60
2023/12/06 00:34:17;;;;;;;2.50;2.17;;;3.20;99.90;;;;;;5054945;28;20206;-60
2023/12/06 00:36:44;;;;;;;2.10;2.00;;;3.30;99.90;;;;;;5054890;28;20599;-58
2023/12/06 00:39:13;;;;;;;2.83;2.55;;;3.30;99.90;;;;;;5054599;28;20204;-58
2023/12/06 00:41:40;;;;;;;2.38;2.13;;;3.30;99.90;;;;;;5054337;28;20194;-58
2023/12/06 00:44:07;;;;;;;2.13;2.03;;;3.30;99.90;;;;;;5054887;28;20216;-58
2023/12/06 00:46:34;;;;;;;2.58;2.40;;;3.30;99.90;;;;;;5054523;28;20237;-60
2023/12/06 00:49:03;;;;;;;2.35;2.25;;;3.30;99.90;;;;;;5054208;28;20195;-58
2023/12/06 00:51:31;;;;;;;2.60;2.50;;;3.30;99.90;;;;;;5054061;28;20642;-59
2023/12/06 00:53:58;;;;;;;1.70;1.55;;;3.30;99.90;;;;;;5054160;28;20216;-55
2023/12/06 00:56:24;;;;;;;2.88;2.78;;;3.30;99.90;;;;;;5054601;28;20298;-60
2023/12/06 00:58:51;;;;;;;1.83;1.73;;;3.30;99.90;;;;;;5054403;28;20699;-56
2023/12/06 01:01:18;;;;;;;1.88;1.77;;;3.30;99.90;;;;;;5054529;28;20229;-58
2023/12/06 01:03:45;;;;;;;1.92;1.83;;;3.30;99.90;;;;;;5054408;28;20677;-60
2023/12/06 01:06:12;;;;;;;1.55;1.45;;;3.30;99.90;;;;;;5054708;28;20211;-60
2023/12/06 01:08:40;;;;;;;2.22;2.05;;;3.20;99.90;;;;;;5054552;28;20207;-59
2023/12/06 01:11:07;;;;;;;2.42;2.30;;;3.20;99.90;;;;;;5054264;28;20325;-60
2023/12/06 01:13:34;;;;;;;6.97;2.20;;;3.20;99.90;;;;;;5054523;28;20636;-60
2023/12/06 01:16:01;;;;;;;2.08;1.90;;;3.10;99.90;;;;;;5052820;28;20221;-60
2023/12/06 01:18:28;;;;;;;2.20;2.10;;;3.10;99.90;;;;;;5054129;28;20216;-59
2023/12/06 01:20:55;;;;;;;2.42;2.08;;;3.00;99.90;;;;;;5054650;28;20665;-59
2023/12/06 01:23:21;;;;;;;2.13;2.03;;;3.00;99.90;;;;;;5054603;28;20301;-60
2023/12/06 01:25:50;;;;;;;2.05;1.95;;;3.00;99.90;;;;;;5054204;28;20297;-60
2023/12/06 01:28:16;;;;;;;2.15;2.05;;;2.90;99.90;;;;;;5054139;28;20221;-58
2023/12/06 01:30:43;;;;;;;3.63;1.42;;;2.90;99.90;;;;;;5053794;28;20230;-59
2023/12/06 01:33:10;;;;;;;1.73;1.70;;;2.80;99.90;;;;;;5054060;28;20213;-59
2023/12/06 01:35:37;;;;;;;2.05;1.95;;;2.80;99.90;;;;;;5053946;28;20236;-59
2023/12/06 01:38:04;;;;;;;2.30;2.10;;;2.80;99.90;;;;;;5053687;28;20329;-60
2023/12/06 01:40:30;;;;;;;2.00;1.90;;;2.70;99.90;;;;;;5053864;28;20230;-59
2023/12/06 01:42:59;;;;;;;2.20;2.10;;;2.70;99.90;;;;;;5053739;28;20292;-60
2023/12/06 01:45:25;;;;;;;1.95;1.85;;;2.70;99.90;;;;;;5053798;28;20769;-59
2023/12/06 01:47:54;;;;;;;2.25;2.15;;;2.70;99.90;;;;;;5053633;28;20210;-60
2023/12/06 01:50:21;;;;;;;3.63;2.53;;;2.60;99.90;;;;;;5053570;28;20223;-60
2023/12/06 01:52:49;;;;;;;1.50;1.40;;;2.60;99.90;;;;;;5053634;28;20304;-60
2023/12/06 01:55:15;;;;;;;2.05;1.95;;;2.60;99.90;;;;;;5053661;28;20799;-60
2023/12/06 01:57:44;;;;;;;1.85;1.75;;;2.60;99.90;;;;;;5053337;28;20728;-59
2023/12/06 02:00:15;;;;;;;2.00;1.90;;;2.60;99.90;;;;;;5053638;28;20589;-58
2023/12/06 02:02:42;;;;;;;1.90;1.80;;;2.60;99.90;;;;;;5053448;28;20688;-60
2023/12/06 02:05:09;;;;;;;2.00;1.90;;;2.50;99.90;;;;;;5053590;28;20651;-59
2023/12/06 02:07:37;;;;;;;2.20;2.10;;;2.50;99.90;;;;;;5053155;28;20214;-58
2023/12/06 02:10:04;;;;;;;2.10;2.00;;;2.50;99.90;;;;;;5053391;28;20249;-59
2023/12/06 02:12:31;;;;;;;2.13;2.03;;;2.50;99.90;;;;;;5053343;28;20360;-59
2023/12/06 02:15:00;;;;;;;2.58;2.38;;;2.50;99.90;;;;;;5053414;28;20892;-60
2023/12/06 02:17:30;;;;;;;2.80;2.60;;;2.50;99.90;;;;;;5053393;28;20241;-59
2023/12/06 02:19:58;;;;;;;2.33;2.22;;;2.50;99.90;;;;;;5053194;28;20227;-59
2023/12/06 02:22:26;;;;;;;2.28;2.17;;;2.50;99.90;;;;;;5053304;28;20206;-60
2023/12/06 02:24:57;;;;;;;2.20;2.05;;;2.50;99.90;;;;;;5052887;28;20296;-57
2023/12/06 02:27:26;;;;;;;2.45;2.35;;;2.50;99.90;;;;;;5052794;28;20301;-60
2023/12/06 02:29:52;;;;;;;2.50;2.40;;;2.50;99.90;;;;;;5053039;28;20784;-59
2023/12/06 02:32:19;;;;;;;3.38;3.17;;;2.40;99.90;;;;;;5053091;28;20226;-57
2023/12/06 02:34:48;;;;;;;3.42;3.13;;;2.50;99.90;;;;;;5053010;28;20297;-59
2023/12/06 02:37:17;;;;;;;2.90;2.70;;;2.40;99.90;;;;;;5052258;28;20209;-60
2023/12/06 02:39:45;;;;;;;2.58;2.47;;;2.40;99.90;;;;;;5052628;28;20313;-59
2023/12/06 02:42:12;;;;;;;2.67;2.47;;;2.50;99.90;;;;;;5052980;28;20252;-57
2023/12/06 02:44:40;;;;;;;2.92;2.72;;;2.50;99.90;;;;;;5052763;28;20289;-59
2023/12/06 02:47:07;;;;;;;2.70;2.60;;;2.50;99.90;;;;;;5052642;28;20202;-58
2023/12/06 02:49:34;;;;;;;2.78;2.58;;;2.50;99.90;;;;;;5051363;28;20229;-59
2023/12/06 02:52:03;;;;;;;2.25;2.15;;;2.50;99.90;;;;;;5051988;28;20218;-59
2023/12/06 02:54:29;;;;;;;2.30;2.10;;;2.50;99.90;;;;;;5051575;28;20202;-60
2023/12/06 02:56:56;;;;;;;2.40;2.30;;;2.50;99.90;;;;;;5052251;28;20206;-60
2023/12/06 02:59:23;;;;;;;3.83;3.53;;;2.50;99.90;;;;;;5051385;28;20307;-58
2023/12/06 03:01:51;;;;;;;2.80;2.60;;;2.50;99.90;;;;;;5052298;28;20289;-60
2023/12/06 03:04:18;;;;;;;2.60;2.42;;;2.50;99.90;;;;;;5051215;28;20207;-57
2023/12/06 03:06:45;;;;;;;2.80;2.60;;;2.50;99.90;;;;;;5051895;28;20205;-59
2023/12/06 03:09:12;;;;;;;3.38;3.17;;;2.50;99.90;;;;;;5051874;28;20210;-57
2023/12/06 03:11:39;;;;;;;3.60;3.30;;;2.50;99.90;;;;;;5051520;28;20280;-60
2023/12/06 03:14:06;;;;;;;2.60;2.50;;;2.50;99.90;;;;;;5052037;28;20252;-59
2023/12/06 03:16:33;;;;;;;7.22;3.97;;;2.60;99.90;;;;;;5052012;28;20297;-59
2023/12/06 03:19:02;;;;;;;3.55;3.25;;;2.60;99.90;;;;;;5051842;28;20206;-56
2023/12/06 03:21:29;;;;;;;2.30;2.10;;;2.60;99.90;;;;;;5051744;28;20314;-58
2023/12/06 03:23:56;;;;;;;2.28;2.10;;;2.70;99.90;;;;;;5052116;28;20225;-60
2023/12/06 03:26:23;;;;;;;3.03;2.83;;;2.70;99.90;;;;;;5051960;28;20655;-56
2023/12/06 03:28:50;;;;;;;3.10;2.22;;;2.60;99.90;;;;;;5051626;28;20202;-59
2023/12/06 03:31:16;;;;;;;2.65;2.53;;;2.60;99.90;;;;;;5051511;28;20241;-56
2023/12/06 03:33:43;;;;;;;1.80;1.70;;;2.60;99.90;;;;;;5051218;28;20209;-58
2023/12/06 03:36:12;;;;;;;3.47;3.15;;;2.60;99.90;;;;;;5050955;28;20206;-59
2023/12/06 03:38:40;;;;;;;2.42;2.30;;;2.50;99.90;;;;;;5050691;28;20203;-60
2023/12/06 03:41:07;;;;;;;4.55;2.45;;;2.60;99.90;;;;;;5051610;28;20614;-55
2023/12/06 03:43:34;;;;;;;2.40;2.20;;;2.50;99.90;;;;;;5051868;28;20206;-58
2023/12/06 03:46:02;;;;;;;2.85;2.70;;;2.50;99.90;;;;;;5051660;28;20206;-57
2023/12/06 03:48:29;;;;;;;4.78;3.22;;;2.50;99.90;;;;;;5051721;28;20203;-57
2023/12/06 03:50:56;;;;;;;2.53;2.33;;;2.50;99.90;;;;;;5051604;28;20234;-60
2023/12/06 03:53:24;;;;;;;2.78;2.35;;;2.50;99.90;;;;;;5051746;28;20223;-56
2023/12/06 03:55:51;;;;;;;2.55;2.45;;;2.50;99.90;;;;;;5051813;28;20297;-60
2023/12/06 03:58:18;;;;;;;2.53;2.33;;;2.50;99.90;;;;;;5051596;28;20677;-57
2023/12/06 04:00:45;;;;;;;2.70;2.35;;;2.50;99.90;;;;;;5051356;28;20317;-55
2023/12/06 04:03:12;;;;;;;1.85;1.75;;;2.40;99.90;;;;;;5051480;28;20206;-55
2023/12/06 04:05:41;;;;;;;2.47;2.28;;;2.40;99.90;;;;;;5051673;28;20202;-53
2023/12/06 04:08:08;;;;;;;2.83;2.63;;;2.40;99.90;;;;;;5051397;28;20213;-58
2023/12/06 04:10:36;;;;;;;3.40;2.17;;;2.40;99.90;;;;;;5051356;28;20240;-59
2023/12/06 04:13:04;;;;;;;4.30;1.80;;;2.40;99.90;;;;;;5051449;28;20233;-57
2023/12/06 04:15:31;;;;;;;2.53;2.33;;;2.40;99.90;;;;;;5051429;28;20264;-57
2023/12/06 04:17:57;;;;;;;3.33;3.00;;;2.40;99.90;;;;;;5051348;28;20289;-56
2023/12/06 04:20:24;;;;;;;3.00;2.80;;;2.40;99.90;;;;;;5051366;28;20249;-56
2023/12/06 04:22:51;;;;;;;2.88;2.67;;;2.40;99.90;;;;;;5051483;28;20202;-58
2023/12/06 04:25:18;;;;;;;2.63;2.42;;;2.40;99.90;;;;;;5051469;28;20206;-59
2023/12/06 04:27:46;;;;;;;2.25;2.15;;;2.40;99.90;;;;;;5050982;28;20206;-56
2023/12/06 04:30:14;;;;;;;2.53;2.42;;;2.40;99.90;;;;;;5051321;28;20237;-56
2023/12/06 04:32:41;;;;;;;2.70;2.50;;;2.40;99.90;;;;;;5051216;28;20236;-55
2023/12/06 04:35:10;;;;;;;2.30;2.10;;;2.50;99.90;;;;;;5051370;28;20293;-56
2023/12/06 04:37:37;;;;;;;3.00;2.70;;;2.50;99.90;;;;;;5050908;28;20243;-56
2023/12/06 04:40:05;;;;;;;2.75;2.55;;;2.50;99.90;;;;;;5051225;28;20230;-56
2023/12/06 04:42:32;;;;;;;2.20;2.10;;;2.50;99.90;;;;;;5051312;28;20202;-55
2023/12/06 04:45:01;;;;;;;3.33;3.03;;;2.50;99.90;;;;;;5051417;28;20206;-54
2023/12/06 04:47:27;;;;;;;2.50;2.30;;;2.50;99.90;;;;;;5050963;28;20693;-56
2023/12/06 04:49:54;;;;;;;2.85;2.65;;;2.50;99.90;;;;;;5051535;28;20231;-54
2023/12/06 04:52:22;;;;;;;2.70;2.50;;;2.50;99.90;;;;;;5054967;28;20226;-58
2023/12/06 04:54:49;;;;;;;3.00;2.80;;;2.50;99.90;;;;;;5054911;28;20297;-53
2023/12/06 04:57:15;;;;;;;3.45;3.15;;;2.50;99.90;;;;;;5053477;28;20567;-58
2023/12/06 04:59:42;;;;;;;3.30;3.03;;;2.40;99.90;;;;;;5054709;28;20318;-59
2023/12/06 05:02:11;;;;;;;3.38;3.10;;;2.50;99.90;;;;;;5054912;28;20677;-57
2023/12/06 05:04:37;;;;;;;3.75;3.45;;;2.50;99.90;;;;;;5054589;28;20241;-55
2023/12/06 05:07:05;;;;;;;3.20;2.90;;;2.50;99.90;;;;;;5054277;28;20297;-55
2023/12/06 05:09:31;;;;;;;3.97;3.58;;;2.50;99.90;;;;;;5054140;28;20699;-55
2023/12/06 05:11:58;;;;;;;3.85;2.83;;;2.50;99.90;;;;;;5054484;28;20212;-57
2023/12/06 05:14:25;;;;;;;3.70;3.50;;;2.50;99.90;;;;;;5054267;28;20290;-54
2023/12/06 05:16:52;;;;;;;3.83;3.42;;;2.50;99.90;;;;;;5054241;28;20220;-58
2023/12/06 05:19:20;;;;;;;3.63;3.33;;;2.40;99.90;;;;;;5054240;28;20210;-57
2023/12/06 05:21:47;;;;;;;4.43;3.42;;;2.50;99.90;;;;;;5054177;28;20210;-53
2023/12/06 05:24:14;;;;;;;4.03;3.72;;;2.50;99.90;;;;;;5054306;28;20202;-54
2023/12/06 05:26:40;;;;;;;3.50;3.20;;;2.40;99.90;;;;;;5054071;28;20203;-56
2023/12/06 05:29:07;;;;;;;4.10;3.80;;;2.50;99.90;;;;;;5053745;28;20216;-55
2023/12/06 05:31:34;;;;;;;3.95;3.60;;;2.50;99.90;;;;;;5053960;28;20241;-53
2023/12/06 05:34:01;;;;;;;4.28;3.75;;;2.50;99.90;;;;;;5054209;28;20226;-58
2023/12/06 05:36:29;;;;;;;3.03;2.80;;;2.50;99.90;;;;;;5053946;28;20216;-56
2023/12/06 05:38:56;;;;;;;4.45;3.83;;;2.50;99.90;;;;;;5053876;28;20220;-55
2023/12/06 05:41:22;;;;;;;4.13;3.70;;;2.50;99.90;;;;;;5053929;28;20244;-57
2023/12/06 05:43:50;;;;;;;4.70;4.30;;;2.50;99.90;;;;;;5053964;28;20198;-55
2023/12/06 05:46:16;;;;;;;4.70;4.18;;;2.50;99.90;;;;;;5053227;28;20289;-58
2023/12/06 05:48:43;;;;;;;3.90;3.60;;;2.50;99.90;;;;;;5053573;28;20213;-53
2023/12/06 05:51:10;;;;;;;4.43;4.07;;;2.50;99.90;;;;;;5054009;28;20340;-56
2023/12/06 05:53:39;;;;;;;3.78;3.50;;;2.50;99.90;;;;;;5053542;28;20234;-53
2023/12/06 05:56:07;;;;;;;4.22;3.78;;;2.50;99.90;;;;;;5053421;28;20297;-56
2023/12/06 05:58:33;;;;;;;5.60;5.20;;;2.50;99.90;;;;;;5053145;28;20208;-53
2023/12/06 06:01:02;;;;;;;5.63;5.22;;;2.50;99.90;;;;;;5053493;28;20739;-56
2023/12/06 06:03:29;;;;;;;5.10;4.70;;;2.50;99.90;;;;;;5052774;28;20202;-56
2023/12/06 06:05:56;;;;;;;3.90;3.60;;;2.60;99.90;;;;;;5053311;28;20297;-58
2023/12/06 06:08:22;;;;;;;4.82;4.43;;;2.60;99.90;;;;;;5052189;28;20211;-57
2023/12/06 06:10:50;;;;;;;4.60;4.20;;;2.50;99.90;;;;;;5052487;28;20738;-53
2023/12/06 06:13:17;;;;;;;4.18;3.83;;;2.50;99.90;;;;;;5053277;28;20655;-57
2023/12/06 06:15:44;;;;;;;4.88;4.10;;;2.60;99.90;;;;;;5072761;22;20234;-59
2023/12/06 06:18:11;;;;;;;5.78;5.18;;;2.60;99.90;;;;;;5031677;28;20740;-59
2023/12/06 06:20:39;;;;;;;6.28;5.03;;;2.60;99.90;;;;;;5032988;28;20290;-61
2023/12/06 06:23:05;;;;;;;7.30;5.75;;;2.50;99.90;;;;;;5032965;28;20199;-60
2023/12/06 06:25:32;;;;;;;6.10;5.30;;;2.60;99.90;;;;;;5032851;28;20213;-59
2023/12/06 06:28:00;;;;;;;5.18;4.78;;;2.60;99.90;;;;;;5032424;28;20303;-60
2023/12/06 06:30:27;;;;;;;5.70;5.15;;;2.60;99.90;;;;;;5033024;28;20298;-59
2023/12/06 06:32:54;;;;;;;5.28;4.78;;;2.60;99.90;;;;;;5032640;28;20237;-61
2023/12/06 06:35:21;;;;;;;5.80;5.40;;;2.60;99.90;;;;;;5032489;28;20203;-59
2023/12/06 06:37:48;;;;;;;6.55;5.60;;;2.60;99.90;;;;;;5032257;28;20206;-60
2023/12/06 06:40:15;;;;;;;6.30;5.80;;;2.60;99.90;;;;;;5032631;28;20206;-60
2023/12/06 06:42:42;;;;;;;7.50;5.72;;;2.60;99.90;;;;;;5032416;28;20211;-58
2023/12/06 06:45:11;;;;;;;10.00;6.57;;;2.60;99.90;;;;;;5032347;28;20761;-61
2023/12/06 06:47:38;;;;;;;6.90;6.05;;;2.60;99.90;;;;;;5032277;28;20223;-60
2023/12/06 06:50:06;;;;;;;5.93;5.32;;;2.60;99.90;;;;;;5032491;28;20207;-60
2023/12/06 06:52:34;;;;;;;6.40;5.88;;;2.60;99.90;;;;;;5032337;28;20229;-59
2023/12/06 06:55:01;;;;;;;6.25;5.47;;;2.60;99.90;;;;;;5032176;28;20214;-62
2023/12/06 06:57:30;;;;;;;9.88;6.05;;;2.60;99.90;;;;;;5032033;28;20227;-59
2023/12/06 06:59:57;;;;;;;12.90;10.20;;;2.60;99.90;;;;;;5031129;28;20520;-61
2023/12/06 07:02:25;;;;;;;11.27;8.23;;;2.70;99.90;;;;;;5032289;28;20333;-60
2023/12/06 07:04:52;;;;;;;7.75;6.95;;;2.80;99.90;;;;;;5032123;28;20297;-60
2023/12/06 07:07:19;;;;;;;7.63;6.55;;;2.80;99.90;;;;;;5031649;28;20231;-61
2023/12/06 07:09:46;;;;;;;6.28;5.78;;;2.70;99.90;;;;;;5031763;28;20587;-60
2023/12/06 07:12:13;;;;;;;7.90;7.05;;;2.70;99.90;;;;;;5031961;28;20213;-61
2023/12/06 07:14:39;;;;;;;7.78;7.03;;;2.70;99.90;;;;;;5032022;28;20230;-60
2023/12/06 07:17:07;;;;;;;7.47;6.78;;;2.70;99.90;;;;;;5031471;28;20235;-57
2023/12/06 07:19:35;;;;;;;8.90;8.02;;;2.70;99.90;;;;;;5031750;28;20701;-60
2023/12/06 07:22:02;;;;;;;8.90;8.10;;;2.70;99.90;;;;;;5031684;28;20301;-61
2023/12/06 07:24:29;;;;;;;6.53;5.88;;;2.60;99.90;;;;;;5031999;28;20558;-60
2023/12/06 07:26:55;;;;;;;7.28;6.45;;;2.60;99.90;;;;;;5031004;28;20225;-60
2023/12/06 07:29:22;;;;;;;7.55;6.57;;;2.60;99.90;;;;;;5031479;28;20293;-59
2023/12/06 07:31:50;;;;;;;17.65;7.55;;;2.60;99.90;;;;;;5031633;28;20207;-60
2023/12/06 07:34:17;;;;;;;7.72;7.00;;;2.60;99.90;;;;;;5031568;28;20238;-61
2023/12/06 07:36:46;;;;;;;10.13;7.55;;;2.60;99.90;;;;;;5030525;28;20314;-60
2023/12/06 07:39:14;;;;;;;9.25;6.60;;;2.60;99.90;;;;;;5031689;28;20207;-60
2023/12/06 07:41:41;;;;;;;8.23;7.50;;;2.60;99.90;;;;;;5031462;28;20218;-60
2023/12/06 07:44:08;;;;;;;7.07;6.38;;;2.70;99.90;;;;;;5031648;28;20293;-59
2023/12/06 07:46:35;;;;;;;8.15;6.55;;;2.60;99.90;;;;;;5031198;28;20280;-59
2023/12/06 07:49:02;;;;;;;7.05;6.35;;;2.70;99.90;;;;;;5031243;28;20306;-59
2023/12/06 07:51:28;;;;;;;8.73;7.15;;;2.70;99.90;;;;;;5031436;28;20206;-60
2023/12/06 07:53:57;;;;;;;9.82;8.07;;;2.70;99.90;;;;;;5031006;28;20237;-59
2023/12/06 07:56:24;;;;;;;8.90;7.13;;;2.70;99.90;;;;;;5031118;28;20606;-60
2023/12/06 07:58:56;;;;;;;7.82;7.03;;;2.70;99.90;;;;;;5031195;28;20210;-59
2023/12/06 08:01:23;;;;;;;8.77;6.85;;;2.80;99.90;;;;;;5031279;28;20218;-60
2023/12/06 08:03:50;;;;;;;8.40;7.10;;;2.70;99.90;;;;;;5031229;28;20299;-59
2023/12/06 08:06:18;;;;;;;9.40;7.22;;;2.80;99.90;;;;;;5031308;28;20317;-58
2023/12/06 08:08:44;;;;;;;8.63;7.68;;;2.80;99.90;;;;;;5031230;28;20599;-60
2023/12/06 08:11:12;;;;;;;7.88;7.18;;;2.80;99.90;;;;;;5031384;28;20221;-60
2023/12/06 08:13:39;;;;;;;8.93;8.13;;;2.80;99.90;;;;;;5031255;28;20226;-61
2023/12/06 08:16:07;;;;;;;9.00;8.13;;;2.80;99.90;;;;;;5030674;28;20245;-61
2023/12/06 08:18:34;;;;;;;9.23;7.45;;;2.80;99.90;;;;;;5030911;28;20290;-60
2023/12/06 08:21:03;;;;;;;8.75;7.95;;;2.80;99.90;;;;;;5031279;28;20211;-59
2023/12/06 08:23:30;;;;;;;13.32;6.68;;;2.80;99.90;;;;;;5031102;28;20210;-59
2023/12/06 08:25:57;;;;;;;11.45;9.23;;;2.80;99.90;;;;;;5033031;28;20227;-61
2023/12/06 08:28:26;;;;;;;9.70;6.60;;;2.90;99.90;;;;;;5034892;28;20280;-61
2023/12/06 08:30:53;;;;;;;8.30;6.63;;;2.80;99.90;;;;;;5034842;28;20246;-61
2023/12/06 08:33:22;;;;;;;8.07;6.45;;;2.90;99.90;;;;;;5035135;28;20372;-60
2023/12/06 08:35:51;;;;;;;12.70;8.90;;;2.90;99.90;;;;;;5034657;28;20262;-61
2023/12/06 08:38:17;;;;;;;9.00;8.20;;;2.90;99.90;;;;;;5034744;28;20290;-61
2023/12/06 08:40:44;;;;;;;11.57;7.32;;;2.90;99.90;;;;;;5032749;28;20203;-61
2023/12/06 08:43:11;;;;;;;10.75;7.05;;;2.90;99.90;;;;;;5034585;28;20210;-61
2023/12/06 08:45:39;;;;;;;8.95;8.00;;;2.90;99.90;;;;;;5033238;28;20235;-57
2023/12/06 08:48:06;;;;;;;12.65;8.50;;;2.90;99.90;;;;;;5034403;28;20209;-62
2023/12/06 08:50:33;;;;;;;11.52;10.32;;;3.00;99.90;;;;;;5033926;28;20202;-60
2023/12/06 08:53:00;;;;;;;8.60;7.43;;;3.00;99.90;;;;;;5034204;28;20211;-60
2023/12/06 08:55:27;;;;;;;10.68;9.57;;;3.00;99.90;;;;;;5033452;28;20302;-59
2023/12/06 08:57:54;;;;;;;10.50;8.38;;;3.10;99.90;;;;;;5034074;28;20222;-58
2023/12/06 09:00:20;;;;;;;8.50;7.47;;;3.10;99.90;;;;;;5033484;28;20674;-60
2023/12/06 09:02:49;;;;;;;10.00;6.97;;;3.10;99.90;;;;;;5034504;28;20230;-60
2023/12/06 09:05:16;;;;;;;10.65;7.90;;;3.20;99.90;;;;;;5033716;28;20199;-60
2023/12/06 09:07:43;;;;;;;9.45;8.32;;;3.20;99.90;;;;;;5033617;28;20297;-60
2023/12/06 09:10:10;;;;;;;10.38;7.40;;;3.20;99.90;;;;;;5033908;28;20246;-59
2023/12/06 09:12:37;;;;;;;10.05;7.95;;;3.30;99.90;;;;;;5033720;28;20204;-59
2023/12/06 09:15:04;;;;;;;9.90;8.48;;;3.30;99.90;;;;;;5031274;28;20237;-58
2023/12/06 09:17:31;;;;;;;11.82;9.65;;;3.30;99.90;;;;;;5032285;28;20273;-61
2023/12/06 09:19:59;;;;;;;11.85;9.38;;;3.40;99.90;;;;;;5032215;28;20286;-61
2023/12/06 09:22:26;;;;;;;15.25;11.15;;;3.40;99.90;;;;;;5032493;28;20231;-58
2023/12/06 09:24:53;;;;;;;16.80;13.10;;;3.50;99.90;;;;;;5031910;28;20209;-60
2023/12/06 09:27:20;;;;;;;13.95;11.60;;;3.50;99.90;;;;;;5031943;28;20609;-60
2023/12/06 09:29:47;;;;;;;12.13;10.18;;;3.60;99.90;;;;;;5032294;28;20297;-59
2023/12/06 09:32:14;;;;;;;6.15;5.55;;;3.60;99.90;;;;;;5032052;28;20207;-61
2023/12/06 09:34:41;;;;;;;9.10;6.85;;;3.60;99.90;;;;;;5032414;28;20233;-59
2023/12/06 09:37:10;;;;;;;8.48;7.63;;;3.70;99.90;;;;;;5030646;28;20242;-62
2023/12/06 09:39:37;;;;;;;8.07;7.38;;;3.70;99.90;;;;;;5031748;28;20648;-59
2023/12/06 09:42:05;;;;;;;8.23;7.43;;;3.70;99.90;;;;;;5032138;28;20207;-61
2023/12/06 09:44:32;;;;;;;9.45;8.55;;;3.70;99.90;;;;;;5032331;28;20361;-60
2023/12/06 09:47:00;;;;;;;11.80;9.23;;;3.70;99.90;;;;;;5031702;28;20310;-59
2023/12/06 09:49:27;;;;;;;9.15;8.25;;;3.70;99.90;;;;;;5032135;28;20210;-59
2023/12/06 09:51:59;;;;;;;9.40;7.50;;;3.70;99.90;;;;;;5032038;28;20227;-60
2023/12/06 09:54:27;;;;;;;8.95;8.02;;;3.70;99.90;;;;;;5031750;28;20727;-59
2023/12/06 09:56:54;;;;;;;12.25;9.77;;;3.80;99.90;;;;;;5031812;28;20237;-60
2023/12/06 09:59:20;;;;;;;8.32;7.47;;;3.80;99.90;;;;;;5030615;28;20207;-60
2023/12/06 10:01:47;;;;;;;12.70;8.10;;;3.80;99.90;;;;;;5031651;28;20298;-59
2023/12/06 10:04:15;;;;;;;8.73;7.90;;;3.80;99.90;;;;;;5032550;28;20206;-62
2023/12/06 10:06:43;;;;;;;11.45;9.00;;;3.90;99.90;;;;;;5031754;28;20231;-61
2023/12/06 10:09:10;;;;;;;9.80;8.80;;;3.80;99.90;;;;;;5031884;28;20301;-61
2023/12/06 10:11:38;;;;;;;8.40;7.60;;;3.90;99.90;;;;;;5032289;28;20207;-62
2023/12/06 10:14:05;;;;;;;7.78;7.10;;;3.90;99.90;;;;;;5032084;28;20632;-61
2023/12/06 10:16:37;;;;;;;14.68;13.15;;;3.90;99.90;;;;;;5031418;28;20234;-62
2023/12/06 10:19:04;;;;;;;18.05;14.30;;;3.80;99.90;;;;;;5031081;28;20305;-62
2023/12/06 10:21:32;;;;;;;15.20;10.93;;;3.80;99.90;;;;;;5031820;28;20300;-62
2023/12/06 10:24:01;;;;;;;7.75;7.00;;;3.90;99.90;;;;;;5031927;28;20749;-62
2023/12/06 10:26:27;;;;;;;8.70;7.90;;;3.90;99.90;;;;;;5031770;28;20597;-61
2023/12/06 10:28:56;;;;;;;9.87;8.57;;;3.90;99.90;;;;;;5031690;28;20207;-62
2023/12/06 10:31:22;;;;;;;8.70;8.00;;;3.90;99.90;;;;;;5031383;28;20460;-62
2023/12/06 10:33:54;;;;;;;8.55;7.43;;;3.90;99.90;;;;;;5031531;28;20219;-61
2023/12/06 10:36:22;;;;;;;7.22;6.53;;;3.80;99.90;;;;;;5031562;28;20611;-62
2023/12/06 10:38:52;;;;;;;7.50;6.80;;;3.70;99.90;;;;;;5031469;28;20210;-61
2023/12/06 10:41:21;;;;;;;8.40;7.55;;;3.70;99.90;;;;;;5031503;28;20293;-61
2023/12/06 10:43:50;;;;;;;7.60;6.90;;;3.70;99.90;;;;;;5031208;28;20295;-60
2023/12/06 10:46:20;;;;;;;9.48;8.15;;;3.70;99.90;;;;;;5031041;28;20231;-57
2023/12/06 10:48:49;;;;;;;10.27;7.82;;;3.70;99.90;;;;;;5031055;28;20206;-60
2023/12/06 10:51:17;;;;;;;7.72;7.05;;;3.70;99.90;;;;;;5030516;28;20229;-59
2023/12/06 10:53:45;;;;;;;11.60;8.43;;;3.70;99.90;;;;;;5030949;28;20725;-60
2023/12/06 10:56:15;;;;;;;7.07;6.47;;;3.70;99.90;;;;;;5030460;28;20226;-61
2023/12/06 10:58:43;;;;;;;10.63;8.70;;;3.70;99.90;;;;;;5030861;28;20233;-61
2023/12/06 11:01:12;;;;;;;8.43;7.45;;;3.70;99.90;;;;;;5031143;28;20302;-61
2023/12/06 11:03:40;;;;;;;9.80;8.15;;;3.70;99.90;;;;;;5031167;28;20314;-60
2023/12/06 11:06:20;;;;;;;11.18;9.18;;;3.60;99.90;;;;;;5028108;28;20223;-61
2023/12/06 11:09:02;;;;;;;8.80;8.00;;;3.60;99.90;;;;;;5030062;28;20795;-59
2023/12/06 11:11:45;;;;;;;11.27;9.25;;;3.60;99.90;;;;;;5031016;28;20684;-59
2023/12/06 11:14:27;;;;;;;11.68;9.55;;;3.60;99.90;;;;;;5030650;28;20226;-60
2023/12/06 11:17:06;;;;;;;13.13;10.43;;;3.50;99.90;;;;;;5029654;28;20932;-59
2023/12/06 11:19:35;;;;;;;10.15;8.23;;;3.60;99.90;;;;;;5029940;28;20249;-61
2023/12/06 11:22:03;;;;;;;12.27;8.95;;;3.50;99.90;;;;;;5030198;28;20701;-59
2023/12/06 11:24:30;;;;;;;13.32;10.80;;;3.50;99.90;;;;;;5030311;28;20210;-60
2023/12/06 11:26:57;;;;;;;13.00;10.15;;;3.50;99.90;;;;;;5030029;28;20227;-59
2023/12/06 11:29:25;;;;;;;14.00;10.77;;;3.50;99.90;;;;;;5030022;28;20764;-59
2023/12/06 11:31:57;;;;;;;12.93;11.65;;;3.50;99.90;;;;;;5030403;28;20586;-59
2023/12/06 11:34:36;;;;;;;13.95;10.82;;;3.50;99.90;;;;;;5029834;28;20325;-59
2023/12/06 11:37:06;;;;;;;14.75;12.93;;;3.60;99.90;;;;;;5030125;28;20258;-60
2023/12/06 11:39:33;;;;;;;12.40;11.18;;;3.50;99.90;;;;;;5026479;28;20297;-59
2023/12/06 11:42:01;;;;;;;12.63;11.43;;;3.50;99.90;;;;;;5026530;28;20203;-60
2023/12/06 11:44:28;;;;;;;11.40;10.25;;;3.60;99.90;;;;;;5023292;28;20589;-59
2023/12/06 11:46:56;;;;;;;12.82;11.57;;;3.50;99.90;;;;;;5028892;28;20223;-60
2023/12/06 11:49:23;;;;;;;11.45;9.10;;;3.50;99.90;;;;;;5029299;28;20206;-60
2023/12/06 11:51:55;;;;;;;14.48;12.90;;;3.50;99.90;;;;;;5029976;28;20211;-59
2023/12/06 11:54:23;;;;;;;13.13;10.80;;;3.50;99.90;;;;;;5029635;28;20235;-60
2023/12/06 11:56:49;;;;;;;12.13;11.02;;;3.50;99.90;;;;;;5029082;28;20227;-59
2023/12/06 11:59:17;;;;;;;12.48;10.88;;;3.50;99.90;;;;;;5030088;28;20203;-60
2023/12/06 12:01:45;;;;;;;13.65;12.25;;;3.50;99.90;;;;;;5030772;28;20232;-61
2023/12/06 12:04:12;;;;;;;15.18;13.18;;;3.50;99.90;;;;;;5031050;28;20303;-59
2023/12/06 12:06:39;;;;;;;14.60;13.10;;;3.50;99.90;;;;;;5030301;28;20226;-62
2023/12/06 12:09:08;;;;;;;17.70;11.90;;;3.50;99.90;;;;;;5030694;28;20211;-59
2023/12/06 12:11:35;;;;;;;13.32;12.13;;;3.50;99.90;;;;;;5029295;28;20217;-57
2023/12/06 12:14:02;;;;;;;14.88;12.60;;;3.50;99.90;;;;;;5030566;28;20298;-62
2023/12/06 12:16:29;;;;;;;14.48;12.95;;;3.50;99.90;;;;;;5030396;28;20317;-60
2023/12/06 12:18:59;;;;;;;13.60;10.98;;;3.40;99.90;;;;;;5030522;28;20298;-62
2023/12/06 12:21:29;;;;;;;13.05;11.48;;;3.40;99.90;;;;;;5030994;28;20353;-60
2023/12/06 12:23:57;;;;;;;14.52;12.98;;;3.40;99.90;;;;;;5029861;28;20299;-62
2023/12/06 12:26:25;;;;;;;14.90;12.15;;;3.40;99.90;;;;;;5030119;28;20429;-59
2023/12/06 12:28:52;;;;;;;16.10;14.27;;;3.30;99.90;;;;;;5030506;28;20210;-59
2023/12/06 12:31:22;;;;;;;14.55;11.68;;;3.40;99.90;;;;;;5030753;28;20206;-60
2023/12/06 12:33:49;;;;;;;13.68;11.18;;;3.30;99.90;;;;;;5030568;28;20210;-62
2023/12/06 12:36:17;;;;;;;14.77;12.88;;;3.30;99.90;;;;;;5029973;28;20227;-61
2023/12/06 12:38:45;;;;;;;16.45;13.73;;;3.30;99.90;;;;;;5030036;28;20218;-61
2023/12/06 12:41:13;;;;;;;15.95;14.35;;;3.30;99.90;;;;;;5030682;28;20211;-60
2023/12/06 12:43:41;;;;;;;15.45;13.30;;;3.40;99.90;;;;;;5030402;28;20245;-62
2023/12/06 12:46:08;;;;;;;13.68;12.38;;;3.40;99.90;;;;;;5029864;28;20241;-58
2023/12/06 12:48:36;;;;;;;18.70;14.23;;;3.40;99.90;;;;;;5029287;28;20257;-62
2023/12/06 12:51:11;;;;;;;14.18;12.55;;;3.40;99.90;;;;;;5030358;28;20573;-60
2023/12/06 12:53:37;;;;;;;16.98;12.45;;;3.40;99.90;;;;;;5029398;28;20209;-60
2023/12/06 12:56:05;;;;;;;15.27;12.30;;;3.40;99.90;;;;;;5030055;28;20229;-62